sensor_id;sensor_type;location;lat;lon;timestamp;P1;durP1;ratioP1;P2;durP2;ratioP2
19595;SDS011;9945;46.010;8.946;2022-11-02T00:01:11;15.65;;;7.30;;
19595;SDS011;9945;46.010;8.946;2022-11-02T00:03:44;16.02;;;7.82;;
19595;SDS011;9945;46.010;8.946;2022-11-02T00:06:11;14.20;;;6.72;;
19595;SDS011;9945;46.010;8.946;2022-11-02T00:08:38;12.02;;;7.05;;
19595;SDS011;9945;46.010;8.946;2022-11-02T00:11:04;13.57;;;6.60;;
19595;SDS011;9945;46.010;8.946;2022-11-02T00:13:33;9.82;;;6.95;;
19595;SDS011;9945;46.010;8.946;2022-11-02T00:16:00;17.35;;;8.13;;
19595;SDS011;9945;46.010;8.946;2022-11-02T00:18:27;13.50;;;6.60;;
19595;SDS011;9945;46.010;8.946;2022-11-02T00:20:54;13.35;;;7.22;;
19595;SDS011;9945;46.010;8.946;2022-11-02T00:23:22;14.43;;;6.97;;
19595;SDS011;9945;46.010;8.946;2022-11-02T00:25:50;10.43;;;7.00;;
19595;SDS011;9945;46.010;8.946;2022-11-02T00:28:19;16.07;;;6.30;;
19595;SDS011;9945;46.010;8.946;2022-11-02T00:30:47;11.60;;;6.97;;
19595;SDS011;9945;46.010;8.946;2022-11-02T00:33:14;10.60;;;6.88;;
19595;SDS011;9945;46.010;8.946;2022-11-02T00:35:41;13.23;;;7.18;;
19595;SDS011;9945;46.010;8.946;2022-11-02T00:38:09;9.23;;;6.57;;
19595;SDS011;9945;46.010;8.946;2022-11-02T00:40:36;13.82;;;6.68;;
19595;SDS011;9945;46.010;8.946;2022-11-02T00:43:04;11.40;;;6.78;;
19595;SDS011;9945;46.010;8.946;2022-11-02T00:45:31;9.93;;;7.20;;
19595;SDS011;9945;46.010;8.946;2022-11-02T00:47:59;9.50;;;7.35;;
19595;SDS011;9945;46.010;8.946;2022-11-02T00:50:26;13.73;;;7.72;;
19595;SDS011;9945;46.010;8.946;2022-11-02T00:52:53;12.55;;;6.75;;
19595;SDS011;9945;46.010;8.946;2022-11-02T00:55:20;14.02;;;7.07;;
19595;SDS011;9945;46.010;8.946;2022-11-02T00:57:47;16.43;;;6.80;;
19595;SDS011;9945;46.010;8.946;2022-11-02T01:00:14;13.43;;;7.32;;
19595;SDS011;9945;46.010;8.946;2022-11-02T01:02:41;10.50;;;7.43;;
19595;SDS011;9945;46.010;8.946;2022-11-02T01:05:10;10.95;;;6.55;;
19595;SDS011;9945;46.010;8.946;2022-11-02T01:07:37;10.80;;;7.05;;
19595;SDS011;9945;46.010;8.946;2022-11-02T01:10:04;9.55;;;6.50;;
19595;SDS011;9945;46.010;8.946;2022-11-02T01:12:32;11.57;;;6.88;;
19595;SDS011;9945;46.010;8.946;2022-11-02T01:14:59;15.98;;;7.10;;
19595;SDS011;9945;46.010;8.946;2022-11-02T01:17:26;12.57;;;6.35;;
19595;SDS011;9945;46.010;8.946;2022-11-02T01:19:52;13.05;;;6.30;;
19595;SDS011;9945;46.010;8.946;2022-11-02T01:22:20;8.63;;;5.85;;
19595;SDS011;9945;46.010;8.946;2022-11-02T01:24:47;12.48;;;6.85;;
19595;SDS011;9945;46.010;8.946;2022-11-02T01:27:14;10.20;;;6.57;;
19595;SDS011;9945;46.010;8.946;2022-11-02T01:29:41;12.00;;;6.20;;
19595;SDS011;9945;46.010;8.946;2022-11-02T01:32:08;8.13;;;5.53;;
19595;SDS011;9945;46.010;8.946;2022-11-02T01:34:34;10.20;;;6.10;;
19595;SDS011;9945;46.010;8.946;2022-11-02T01:37:01;8.13;;;5.80;;
19595;SDS011;9945;46.010;8.946;2022-11-02T01:39:29;8.35;;;5.80;;
19595;SDS011;9945;46.010;8.946;2022-11-02T01:41:56;8.57;;;5.90;;
19595;SDS011;9945;46.010;8.946;2022-11-02T01:44:27;10.30;;;5.93;;
19595;SDS011;9945;46.010;8.946;2022-11-02T01:46:56;10.00;;;5.82;;
19595;SDS011;9945;46.010;8.946;2022-11-02T01:49:26;10.40;;;6.00;;
19595;SDS011;9945;46.010;8.946;2022-11-02T01:51:58;13.57;;;6.27;;
19595;SDS011;9945;46.010;8.946;2022-11-02T01:54:30;12.80;;;5.83;;
19595;SDS011;9945;46.010;8.946;2022-11-02T01:57:03;10.13;;;5.75;;
19595;SDS011;9945;46.010;8.946;2022-11-02T01:59:32;15.68;;;6.78;;
19595;SDS011;9945;46.010;8.946;2022-11-02T02:02:02;7.73;;;6.10;;
19595;SDS011;9945;46.010;8.946;2022-11-02T02:04:34;9.98;;;6.28;;
19595;SDS011;9945;46.010;8.946;2022-11-02T02:07:02;12.63;;;6.47;;
19595;SDS011;9945;46.010;8.946;2022-11-02T02:09:31;13.17;;;6.47;;
19595;SDS011;9945;46.010;8.946;2022-11-02T02:12:00;11.57;;;6.33;;
19595;SDS011;9945;46.010;8.946;2022-11-02T02:14:27;14.27;;;6.57;;
19595;SDS011;9945;46.010;8.946;2022-11-02T02:16:58;15.47;;;5.93;;
19595;SDS011;9945;46.010;8.946;2022-11-02T02:19:36;17.40;;;6.07;;
19595;SDS011;9945;46.010;8.946;2022-11-02T02:22:15;11.27;;;6.10;;
19595;SDS011;9945;46.010;8.946;2022-11-02T02:25:02;11.97;;;6.60;;
19595;SDS011;9945;46.010;8.946;2022-11-02T02:27:51;11.77;;;5.43;;
19595;SDS011;9945;46.010;8.946;2022-11-02T02:30:30;10.27;;;5.67;;
19595;SDS011;9945;46.010;8.946;2022-11-02T02:33:04;11.67;;;5.97;;
19595;SDS011;9945;46.010;8.946;2022-11-02T02:35:39;11.73;;;5.77;;
19595;SDS011;9945;46.010;8.946;2022-11-02T02:38:10;8.20;;;5.50;;
19595;SDS011;9945;46.010;8.946;2022-11-02T02:40:43;12.45;;;6.13;;
19595;SDS011;9945;46.010;8.946;2022-11-02T02:43:17;12.97;;;5.57;;
19595;SDS011;9945;46.010;8.946;2022-11-02T02:45:49;15.93;;;6.23;;
19595;SDS011;9945;46.010;8.946;2022-11-02T02:48:20;14.00;;;6.70;;
19595;SDS011;9945;46.010;8.946;2022-11-02T02:50:49;10.35;;;5.47;;
19595;SDS011;9945;46.010;8.946;2022-11-02T02:53:19;16.17;;;6.00;;
19595;SDS011;9945;46.010;8.946;2022-11-02T02:55:50;9.33;;;5.37;;
19595;SDS011;9945;46.010;8.946;2022-11-02T02:58:20;9.40;;;5.77;;
19595;SDS011;9945;46.010;8.946;2022-11-02T03:00:50;13.98;;;6.78;;
19595;SDS011;9945;46.010;8.946;2022-11-02T03:03:19;10.83;;;5.67;;
19595;SDS011;9945;46.010;8.946;2022-11-02T03:05:58;6.65;;;5.57;;
19595;SDS011;9945;46.010;8.946;2022-11-02T03:08:30;10.93;;;6.20;;
19595;SDS011;9945;46.010;8.946;2022-11-02T03:11:01;11.70;;;5.63;;
19595;SDS011;9945;46.010;8.946;2022-11-02T03:13:37;15.87;;;5.83;;
19595;SDS011;9945;46.010;8.946;2022-11-02T03:16:15;12.57;;;5.83;;
19595;SDS011;9945;46.010;8.946;2022-11-02T03:18:54;13.43;;;5.30;;
19595;SDS011;9945;46.010;8.946;2022-11-02T03:21:33;11.27;;;5.57;;
19595;SDS011;9945;46.010;8.946;2022-11-02T03:24:05;8.50;;;5.67;;
19595;SDS011;9945;46.010;8.946;2022-11-02T03:26:41;8.37;;;5.17;;
19595;SDS011;9945;46.010;8.946;2022-11-02T03:29:13;14.50;;;5.60;;
19595;SDS011;9945;46.010;8.946;2022-11-02T03:31:45;10.47;;;5.30;;
19595;SDS011;9945;46.010;8.946;2022-11-02T03:34:21;7.13;;;4.93;;
19595;SDS011;9945;46.010;8.946;2022-11-02T03:36:55;10.80;;;5.10;;
19595;SDS011;9945;46.010;8.946;2022-11-02T03:39:27;11.47;;;4.47;;
19595;SDS011;9945;46.010;8.946;2022-11-02T03:41:58;10.40;;;4.67;;
19595;SDS011;9945;46.010;8.946;2022-11-02T03:44:29;11.23;;;4.60;;
19595;SDS011;9945;46.010;8.946;2022-11-02T03:47:02;7.80;;;4.60;;
19595;SDS011;9945;46.010;8.946;2022-11-02T03:49:31;13.17;;;4.57;;
19595;SDS011;9945;46.010;8.946;2022-11-02T03:52:00;11.80;;;5.13;;
19595;SDS011;9945;46.010;8.946;2022-11-02T03:54:34;9.17;;;3.90;;
19595;SDS011;9945;46.010;8.946;2022-11-02T03:57:08;7.30;;;4.20;;
19595;SDS011;9945;46.010;8.946;2022-11-02T03:59:41;10.70;;;4.30;;
19595;SDS011;9945;46.010;8.946;2022-11-02T04:02:09;10.67;;;4.77;;
19595;SDS011;9945;46.010;8.946;2022-11-02T04:04:46;15.20;;;5.37;;
19595;SDS011;9945;46.010;8.946;2022-11-02T04:07:14;13.27;;;4.73;;
19595;SDS011;9945;46.010;8.946;2022-11-02T04:09:44;10.40;;;4.47;;
19595;SDS011;9945;46.010;8.946;2022-11-02T04:12:11;13.00;;;4.87;;
19595;SDS011;9945;46.010;8.946;2022-11-02T04:14:53;8.53;;;4.30;;
19595;SDS011;9945;46.010;8.946;2022-11-02T04:17:20;14.20;;;4.47;;
19595;SDS011;9945;46.010;8.946;2022-11-02T04:20:04;9.63;;;4.50;;
19595;SDS011;9945;46.010;8.946;2022-11-02T04:22:32;10.10;;;4.17;;
19595;SDS011;9945;46.010;8.946;2022-11-02T04:25:17;10.37;;;4.77;;
19595;SDS011;9945;46.010;8.946;2022-11-02T04:27:45;9.57;;;4.40;;
19595;SDS011;9945;46.010;8.946;2022-11-02T04:30:15;8.47;;;4.10;;
19595;SDS011;9945;46.010;8.946;2022-11-02T04:32:44;10.37;;;4.87;;
19595;SDS011;9945;46.010;8.946;2022-11-02T04:35:29;12.00;;;4.77;;
19595;SDS011;9945;46.010;8.946;2022-11-02T04:37:57;10.80;;;3.83;;
19595;SDS011;9945;46.010;8.946;2022-11-02T04:40:41;7.80;;;4.53;;
19595;SDS011;9945;46.010;8.946;2022-11-02T04:43:08;8.60;;;4.97;;
19595;SDS011;9945;46.010;8.946;2022-11-02T04:45:37;9.73;;;4.23;;
19595;SDS011;9945;46.010;8.946;2022-11-02T04:48:04;9.90;;;4.40;;
19595;SDS011;9945;46.010;8.946;2022-11-02T04:50:33;9.37;;;4.10;;
19595;SDS011;9945;46.010;8.946;2022-11-02T04:53:01;11.20;;;4.77;;
19595;SDS011;9945;46.010;8.946;2022-11-02T04:55:30;10.03;;;4.17;;
19595;SDS011;9945;46.010;8.946;2022-11-02T04:57:56;7.37;;;5.07;;
19595;SDS011;9945;46.010;8.946;2022-11-02T05:00:23;12.45;;;5.15;;
19595;SDS011;9945;46.010;8.946;2022-11-02T05:02:51;11.83;;;4.70;;
19595;SDS011;9945;46.010;8.946;2022-11-02T05:05:18;16.10;;;5.32;;
19595;SDS011;9945;46.010;8.946;2022-11-02T05:07:45;11.57;;;5.15;;
19595;SDS011;9945;46.010;8.946;2022-11-02T05:10:12;7.30;;;4.70;;
19595;SDS011;9945;46.010;8.946;2022-11-02T05:12:39;11.70;;;5.03;;
19595;SDS011;9945;46.010;8.946;2022-11-02T05:15:06;6.53;;;4.30;;
19595;SDS011;9945;46.010;8.946;2022-11-02T05:17:34;11.53;;;5.00;;
19595;SDS011;9945;46.010;8.946;2022-11-02T05:20:02;14.33;;;5.43;;
19595;SDS011;9945;46.010;8.946;2022-11-02T05:22:30;12.27;;;4.50;;
19595;SDS011;9945;46.010;8.946;2022-11-02T05:24:56;17.97;;;4.00;;
19595;SDS011;9945;46.010;8.946;2022-11-02T05:27:23;10.97;;;4.77;;
19595;SDS011;9945;46.010;8.946;2022-11-02T05:29:50;8.03;;;4.33;;
19595;SDS011;9945;46.010;8.946;2022-11-02T05:32:17;9.53;;;4.20;;
19595;SDS011;9945;46.010;8.946;2022-11-02T05:34:44;8.60;;;3.90;;
19595;SDS011;9945;46.010;8.946;2022-11-02T05:37:12;10.57;;;4.13;;
19595;SDS011;9945;46.010;8.946;2022-11-02T05:39:39;9.23;;;4.00;;
19595;SDS011;9945;46.010;8.946;2022-11-02T05:42:06;10.17;;;4.03;;
19595;SDS011;9945;46.010;8.946;2022-11-02T05:44:32;15.93;;;4.40;;
19595;SDS011;9945;46.010;8.946;2022-11-02T05:46:59;10.07;;;3.73;;
19595;SDS011;9945;46.010;8.946;2022-11-02T05:49:26;6.93;;;3.93;;
19595;SDS011;9945;46.010;8.946;2022-11-02T05:51:53;11.30;;;4.00;;
19595;SDS011;9945;46.010;8.946;2022-11-02T05:54:21;8.60;;;3.70;;
19595;SDS011;9945;46.010;8.946;2022-11-02T05:56:48;13.23;;;4.70;;
19595;SDS011;9945;46.010;8.946;2022-11-02T05:59:15;9.03;;;4.13;;
19595;SDS011;9945;46.010;8.946;2022-11-02T06:01:42;13.20;;;4.70;;
19595;SDS011;9945;46.010;8.946;2022-11-02T06:04:09;6.20;;;4.37;;
19595;SDS011;9945;46.010;8.946;2022-11-02T06:06:36;12.50;;;4.30;;
19595;SDS011;9945;46.010;8.946;2022-11-02T06:09:03;6.03;;;4.10;;
19595;SDS011;9945;46.010;8.946;2022-11-02T06:11:31;12.90;;;4.23;;
19595;SDS011;9945;46.010;8.946;2022-11-02T06:13:58;10.53;;;4.30;;
19595;SDS011;9945;46.010;8.946;2022-11-02T06:16:25;12.27;;;4.03;;
19595;SDS011;9945;46.010;8.946;2022-11-02T06:18:52;11.20;;;5.03;;
19595;SDS011;9945;46.010;8.946;2022-11-02T06:21:18;5.97;;;3.97;;
19595;SDS011;9945;46.010;8.946;2022-11-02T06:23:46;6.80;;;4.60;;
19595;SDS011;9945;46.010;8.946;2022-11-02T06:26:13;10.20;;;5.13;;
19595;SDS011;9945;46.010;8.946;2022-11-02T06:28:42;9.33;;;4.53;;
19595;SDS011;9945;46.010;8.946;2022-11-02T06:31:09;9.33;;;4.67;;
19595;SDS011;9945;46.010;8.946;2022-11-02T06:33:35;7.33;;;4.80;;
19595;SDS011;9945;46.010;8.946;2022-11-02T06:36:02;7.80;;;4.23;;
19595;SDS011;9945;46.010;8.946;2022-11-02T06:38:30;13.87;;;4.77;;
19595;SDS011;9945;46.010;8.946;2022-11-02T06:40:57;9.23;;;4.67;;
19595;SDS011;9945;46.010;8.946;2022-11-02T06:43:26;13.13;;;4.90;;
19595;SDS011;9945;46.010;8.946;2022-11-02T06:45:54;11.70;;;5.37;;
19595;SDS011;9945;46.010;8.946;2022-11-02T06:48:22;7.47;;;5.77;;
19595;SDS011;9945;46.010;8.946;2022-11-02T06:50:50;9.23;;;5.27;;
19595;SDS011;9945;46.010;8.946;2022-11-02T06:53:17;8.17;;;5.47;;
19595;SDS011;9945;46.010;8.946;2022-11-02T06:55:44;14.80;;;5.67;;
19595;SDS011;9945;46.010;8.946;2022-11-02T06:58:16;8.27;;;5.18;;
19595;SDS011;9945;46.010;8.946;2022-11-02T07:00:43;15.27;;;5.40;;
19595;SDS011;9945;46.010;8.946;2022-11-02T07:03:11;7.88;;;4.70;;
19595;SDS011;9945;46.010;8.946;2022-11-02T07:05:38;7.13;;;4.80;;
19595;SDS011;9945;46.010;8.946;2022-11-02T07:08:05;7.75;;;4.63;;
19595;SDS011;9945;46.010;8.946;2022-11-02T07:10:32;8.87;;;4.70;;
19595;SDS011;9945;46.010;8.946;2022-11-02T07:13:00;8.18;;;4.25;;
19595;SDS011;9945;46.010;8.946;2022-11-02T07:15:27;6.78;;;4.10;;
19595;SDS011;9945;46.010;8.946;2022-11-02T07:17:53;6.43;;;4.63;;
19595;SDS011;9945;46.010;8.946;2022-11-02T07:20:22;12.30;;;4.45;;
19595;SDS011;9945;46.010;8.946;2022-11-02T07:22:52;8.73;;;4.63;;
19595;SDS011;9945;46.010;8.946;2022-11-02T07:25:19;10.07;;;4.63;;
19595;SDS011;9945;46.010;8.946;2022-11-02T07:27:46;7.90;;;5.03;;
19595;SDS011;9945;46.010;8.946;2022-11-02T07:30:13;7.47;;;4.18;;
19595;SDS011;9945;46.010;8.946;2022-11-02T07:32:40;15.50;;;4.18;;
19595;SDS011;9945;46.010;8.946;2022-11-02T07:35:08;7.22;;;4.18;;
19595;SDS011;9945;46.010;8.946;2022-11-02T07:37:37;11.57;;;5.18;;
19595;SDS011;9945;46.010;8.946;2022-11-02T07:40:05;9.90;;;4.25;;
19595;SDS011;9945;46.010;8.946;2022-11-02T07:42:33;13.20;;;4.47;;
19595;SDS011;9945;46.010;8.946;2022-11-02T07:45:00;11.50;;;5.30;;
19595;SDS011;9945;46.010;8.946;2022-11-02T07:47:27;10.40;;;5.03;;
19595;SDS011;9945;46.010;8.946;2022-11-02T07:49:54;9.77;;;4.50;;
19595;SDS011;9945;46.010;8.946;2022-11-02T07:52:23;14.25;;;4.50;;
19595;SDS011;9945;46.010;8.946;2022-11-02T07:54:52;9.40;;;4.82;;
19595;SDS011;9945;46.010;8.946;2022-11-02T07:57:18;10.48;;;4.57;;
19595;SDS011;9945;46.010;8.946;2022-11-02T07:59:45;8.05;;;4.38;;
19595;SDS011;9945;46.010;8.946;2022-11-02T08:02:12;8.90;;;4.30;;
19595;SDS011;9945;46.010;8.946;2022-11-02T08:04:39;10.27;;;4.22;;
19595;SDS011;9945;46.010;8.946;2022-11-02T08:07:06;14.38;;;4.70;;
19595;SDS011;9945;46.010;8.946;2022-11-02T08:09:33;12.75;;;4.40;;
19595;SDS011;9945;46.010;8.946;2022-11-02T08:12:01;6.97;;;4.15;;
19595;SDS011;9945;46.010;8.946;2022-11-02T08:14:28;12.02;;;3.88;;
19595;SDS011;9945;46.010;8.946;2022-11-02T08:16:55;11.38;;;3.88;;
19595;SDS011;9945;46.010;8.946;2022-11-02T08:19:22;15.98;;;4.03;;
19595;SDS011;9945;46.010;8.946;2022-11-02T08:21:49;13.50;;;4.43;;
19595;SDS011;9945;46.010;8.946;2022-11-02T08:24:16;14.38;;;5.25;;
19595;SDS011;9945;46.010;8.946;2022-11-02T08:26:43;17.90;;;4.95;;
19595;SDS011;9945;46.010;8.946;2022-11-02T08:29:11;15.32;;;5.15;;
19595;SDS011;9945;46.010;8.946;2022-11-02T08:31:38;12.55;;;4.55;;
19595;SDS011;9945;46.010;8.946;2022-11-02T08:34:05;14.35;;;4.63;;
19595;SDS011;9945;46.010;8.946;2022-11-02T08:36:33;13.07;;;4.63;;
19595;SDS011;9945;46.010;8.946;2022-11-02T08:39:00;13.65;;;4.32;;
19595;SDS011;9945;46.010;8.946;2022-11-02T08:41:27;16.35;;;4.40;;
19595;SDS011;9945;46.010;8.946;2022-11-02T08:43:54;13.30;;;4.25;;
19595;SDS011;9945;46.010;8.946;2022-11-02T08:46:24;12.98;;;4.22;;
19595;SDS011;9945;46.010;8.946;2022-11-02T08:48:51;11.77;;;4.60;;
19595;SDS011;9945;46.010;8.946;2022-11-02T08:51:18;17.45;;;4.03;;
19595;SDS011;9945;46.010;8.946;2022-11-02T08:53:44;14.02;;;4.53;;
19595;SDS011;9945;46.010;8.946;2022-11-02T08:56:13;14.45;;;4.70;;
19595;SDS011;9945;46.010;8.946;2022-11-02T08:58:40;19.23;;;4.40;;
19595;SDS011;9945;46.010;8.946;2022-11-02T09:01:07;16.10;;;4.82;;
19595;SDS011;9945;46.010;8.946;2022-11-02T09:03:35;13.38;;;4.10;;
19595;SDS011;9945;46.010;8.946;2022-11-02T09:06:02;12.85;;;4.38;;
19595;SDS011;9945;46.010;8.946;2022-11-02T09:08:29;11.35;;;4.32;;
19595;SDS011;9945;46.010;8.946;2022-11-02T09:10:58;14.20;;;4.07;;
19595;SDS011;9945;46.010;8.946;2022-11-02T09:13:26;10.10;;;4.20;;
19595;SDS011;9945;46.010;8.946;2022-11-02T09:15:53;13.82;;;4.70;;
19595;SDS011;9945;46.010;8.946;2022-11-02T09:18:22;17.17;;;4.82;;
19595;SDS011;9945;46.010;8.946;2022-11-02T09:20:51;13.48;;;4.72;;
19595;SDS011;9945;46.010;8.946;2022-11-02T09:23:18;16.35;;;4.93;;
19595;SDS011;9945;46.010;8.946;2022-11-02T09:25:46;13.13;;;4.78;;
19595;SDS011;9945;46.010;8.946;2022-11-02T09:28:13;10.50;;;4.32;;
19595;SDS011;9945;46.010;8.946;2022-11-02T09:30:40;24.95;;;6.07;;
19595;SDS011;9945;46.010;8.946;2022-11-02T09:33:08;19.45;;;5.45;;
19595;SDS011;9945;46.010;8.946;2022-11-02T09:35:36;13.63;;;4.47;;
19595;SDS011;9945;46.010;8.946;2022-11-02T09:38:06;15.57;;;5.10;;
19595;SDS011;9945;46.010;8.946;2022-11-02T09:40:34;10.10;;;4.78;;
19595;SDS011;9945;46.010;8.946;2022-11-02T09:43:04;18.20;;;4.97;;
19595;SDS011;9945;46.010;8.946;2022-11-02T09:45:40;11.57;;;4.90;;
19595;SDS011;9945;46.010;8.946;2022-11-02T09:48:17;12.63;;;5.07;;
19595;SDS011;9945;46.010;8.946;2022-11-02T09:50:48;13.02;;;5.13;;
19595;SDS011;9945;46.010;8.946;2022-11-02T09:53:23;13.73;;;4.93;;
19595;SDS011;9945;46.010;8.946;2022-11-02T09:55:55;24.17;;;7.13;;
19595;SDS011;9945;46.010;8.946;2022-11-02T09:58:27;15.15;;;4.82;;
19595;SDS011;9945;46.010;8.946;2022-11-02T10:01:01;11.65;;;4.78;;
19595;SDS011;9945;46.010;8.946;2022-11-02T10:03:40;14.65;;;5.28;;
19595;SDS011;9945;46.010;8.946;2022-11-02T10:06:17;20.02;;;5.18;;
19595;SDS011;9945;46.010;8.946;2022-11-02T10:08:50;13.25;;;4.88;;
19595;SDS011;9945;46.010;8.946;2022-11-02T10:11:29;13.85;;;4.25;;
19595;SDS011;9945;46.010;8.946;2022-11-02T10:14:05;16.55;;;4.63;;
19595;SDS011;9945;46.010;8.946;2022-11-02T10:16:39;9.23;;;4.50;;
19595;SDS011;9945;46.010;8.946;2022-11-02T10:19:15;16.42;;;4.30;;
19595;SDS011;9945;46.010;8.946;2022-11-02T10:21:45;15.85;;;4.57;;
19595;SDS011;9945;46.010;8.946;2022-11-02T10:24:20;15.32;;;4.28;;
19595;SDS011;9945;46.010;8.946;2022-11-02T10:26:50;9.98;;;3.85;;
19595;SDS011;9945;46.010;8.946;2022-11-02T10:29:24;13.80;;;4.93;;
19595;SDS011;9945;46.010;8.946;2022-11-02T10:32:00;11.73;;;4.22;;
19595;SDS011;9945;46.010;8.946;2022-11-02T10:34:27;11.55;;;4.50;;
19595;SDS011;9945;46.010;8.946;2022-11-02T10:36:59;15.88;;;4.57;;
19595;SDS011;9945;46.010;8.946;2022-11-02T10:39:44;15.38;;;5.05;;
19595;SDS011;9945;46.010;8.946;2022-11-02T10:42:26;12.38;;;3.85;;
19595;SDS011;9945;46.010;8.946;2022-11-02T10:48:12;9.13;;;4.90;;
19595;SDS011;9945;46.010;8.946;2022-11-02T10:50:52;12.43;;;3.95;;
19595;SDS011;9945;46.010;8.946;2022-11-02T10:53:25;13.63;;;4.50;;
19595;SDS011;9945;46.010;8.946;2022-11-02T10:55:55;9.15;;;3.67;;
19595;SDS011;9945;46.010;8.946;2022-11-02T10:58:26;12.90;;;3.58;;
19595;SDS011;9945;46.010;8.946;2022-11-02T11:01:05;10.75;;;4.13;;
19595;SDS011;9945;46.010;8.946;2022-11-02T11:03:33;9.95;;;4.10;;
19595;SDS011;9945;46.010;8.946;2022-11-02T11:06:18;8.25;;;3.80;;
19595;SDS011;9945;46.010;8.946;2022-11-02T11:08:46;11.63;;;5.40;;
19595;SDS011;9945;46.010;8.946;2022-11-02T11:11:21;14.75;;;4.28;;
19595;SDS011;9945;46.010;8.946;2022-11-02T11:13:53;20.00;;;5.82;;
19595;SDS011;9945;46.010;8.946;2022-11-02T11:16:29;10.05;;;4.38;;
19595;SDS011;9945;46.010;8.946;2022-11-02T11:18:58;14.68;;;7.63;;
19595;SDS011;9945;46.010;8.946;2022-11-02T11:21:33;12.82;;;6.32;;
19595;SDS011;9945;46.010;8.946;2022-11-02T11:27:02;12.50;;;4.40;;
19595;SDS011;9945;46.010;8.946;2022-11-02T11:29:32;9.32;;;3.65;;
19595;SDS011;9945;46.010;8.946;2022-11-02T11:32:00;9.60;;;3.80;;
19595;SDS011;9945;46.010;8.946;2022-11-02T11:34:29;9.07;;;4.03;;
19595;SDS011;9945;46.010;8.946;2022-11-02T11:37:04;9.70;;;3.72;;
19595;SDS011;9945;46.010;8.946;2022-11-02T11:39:34;10.73;;;3.45;;
19595;SDS011;9945;46.010;8.946;2022-11-02T11:42:11;11.32;;;3.50;;
19595;SDS011;9945;46.010;8.946;2022-11-02T11:44:43;9.52;;;3.53;;
19595;SDS011;9945;46.010;8.946;2022-11-02T11:47:11;8.43;;;3.58;;
19595;SDS011;9945;46.010;8.946;2022-11-02T11:49:40;9.73;;;3.58;;
19595;SDS011;9945;46.010;8.946;2022-11-02T11:52:14;14.05;;;3.65;;
19595;SDS011;9945;46.010;8.946;2022-11-02T11:54:51;10.80;;;3.65;;
19595;SDS011;9945;46.010;8.946;2022-11-02T11:57:25;12.82;;;3.38;;
19595;SDS011;9945;46.010;8.946;2022-11-02T11:59:54;15.07;;;3.65;;
19595;SDS011;9945;46.010;8.946;2022-11-02T12:02:24;14.07;;;3.97;;
19595;SDS011;9945;46.010;8.946;2022-11-02T12:04:58;11.73;;;4.35;;
19595;SDS011;9945;46.010;8.946;2022-11-02T12:10:29;10.43;;;3.78;;
19595;SDS011;9945;46.010;8.946;2022-11-02T12:13:12;11.38;;;2.97;;
19595;SDS011;9945;46.010;8.946;2022-11-02T12:15:53;13.57;;;3.75;;
19595;SDS011;9945;46.010;8.946;2022-11-02T12:18:32;10.18;;;3.33;;
19595;SDS011;9945;46.010;8.946;2022-11-02T12:21:15;9.93;;;3.42;;
19595;SDS011;9945;46.010;8.946;2022-11-02T12:23:54;11.18;;;3.03;;
19595;SDS011;9945;46.010;8.946;2022-11-02T12:26:42;11.65;;;3.22;;
19595;SDS011;9945;46.010;8.946;2022-11-02T12:29:33;14.27;;;3.65;;
19595;SDS011;9945;46.010;8.946;2022-11-02T12:32:18;12.85;;;3.10;;
19595;SDS011;9945;46.010;8.946;2022-11-02T12:34:59;10.77;;;3.83;;
19595;SDS011;9945;46.010;8.946;2022-11-02T12:37:40;10.48;;;3.80;;
19595;SDS011;9945;46.010;8.946;2022-11-02T12:40:21;10.07;;;3.58;;
19595;SDS011;9945;46.010;8.946;2022-11-02T12:43:13;9.75;;;3.72;;
19595;SDS011;9945;46.010;8.946;2022-11-02T12:45:57;10.52;;;3.83;;
19595;SDS011;9945;46.010;8.946;2022-11-02T12:48:29;10.55;;;3.53;;
19595;SDS011;9945;46.010;8.946;2022-11-02T12:51:07;10.77;;;4.00;;
19595;SDS011;9945;46.010;8.946;2022-11-02T12:53:39;14.63;;;3.90;;
19595;SDS011;9945;46.010;8.946;2022-11-02T12:56:12;11.07;;;3.50;;
19595;SDS011;9945;46.010;8.946;2022-11-02T12:58:44;9.52;;;4.15;;
19595;SDS011;9945;46.010;8.946;2022-11-02T13:01:15;12.05;;;4.13;;
19595;SDS011;9945;46.010;8.946;2022-11-02T13:03:49;11.30;;;4.30;;
19595;SDS011;9945;46.010;8.946;2022-11-02T13:06:22;14.55;;;3.97;;
19595;SDS011;9945;46.010;8.946;2022-11-02T13:08:55;8.55;;;3.20;;
19595;SDS011;9945;46.010;8.946;2022-11-02T13:11:29;17.65;;;4.22;;
19595;SDS011;9945;46.010;8.946;2022-11-02T13:14:03;14.25;;;4.25;;
19595;SDS011;9945;46.010;8.946;2022-11-02T13:16:38;11.90;;;4.50;;
19595;SDS011;9945;46.010;8.946;2022-11-02T13:19:11;15.60;;;4.20;;
19595;SDS011;9945;46.010;8.946;2022-11-02T13:21:44;11.55;;;4.20;;
19595;SDS011;9945;46.010;8.946;2022-11-02T13:24:19;13.02;;;4.07;;
19595;SDS011;9945;46.010;8.946;2022-11-02T13:26:48;12.68;;;3.60;;
19595;SDS011;9945;46.010;8.946;2022-11-02T13:29:18;6.15;;;3.53;;
19595;SDS011;9945;46.010;8.946;2022-11-02T13:31:54;14.32;;;3.92;;
19595;SDS011;9945;46.010;8.946;2022-11-02T13:34:28;13.98;;;4.15;;
19595;SDS011;9945;46.010;8.946;2022-11-02T13:37:02;10.25;;;3.55;;
19595;SDS011;9945;46.010;8.946;2022-11-02T13:39:33;12.75;;;3.80;;
19595;SDS011;9945;46.010;8.946;2022-11-02T13:42:10;6.10;;;3.38;;
19595;SDS011;9945;46.010;8.946;2022-11-02T13:44:55;9.48;;;4.15;;
19595;SDS011;9945;46.010;8.946;2022-11-02T13:47:39;13.10;;;3.95;;
19595;SDS011;9945;46.010;8.946;2022-11-02T13:50:30;10.65;;;4.05;;
19595;SDS011;9945;46.010;8.946;2022-11-02T13:53:00;12.63;;;3.72;;
19595;SDS011;9945;46.010;8.946;2022-11-02T13:55:35;12.57;;;4.35;;
19595;SDS011;9945;46.010;8.946;2022-11-02T13:58:13;17.75;;;5.10;;
19595;SDS011;9945;46.010;8.946;2022-11-02T14:00:46;15.73;;;4.50;;
19595;SDS011;9945;46.010;8.946;2022-11-02T14:03:15;20.75;;;4.40;;
19595;SDS011;9945;46.010;8.946;2022-11-02T14:05:47;15.25;;;4.32;;
19595;SDS011;9945;46.010;8.946;2022-11-02T14:08:17;13.40;;;4.18;;
19595;SDS011;9945;46.010;8.946;2022-11-02T14:11:21;16.15;;;5.40;;
19595;SDS011;9945;46.010;8.946;2022-11-02T14:14:14;6.90;;;4.10;;
19595;SDS011;9945;46.010;8.946;2022-11-02T14:16:55;14.40;;;5.30;;
19595;SDS011;9945;46.010;8.946;2022-11-02T14:19:28;17.40;;;4.78;;
19595;SDS011;9945;46.010;8.946;2022-11-02T14:25:05;15.15;;;5.25;;
19595;SDS011;9945;46.010;8.946;2022-11-02T14:27:38;11.18;;;5.30;;
19595;SDS011;9945;46.010;8.946;2022-11-02T14:33:05;16.70;;;4.43;;
19595;SDS011;9945;46.010;8.946;2022-11-02T14:35:42;12.52;;;5.15;;
19595;SDS011;9945;46.010;8.946;2022-11-02T14:38:22;20.17;;;4.35;;
19595;SDS011;9945;46.010;8.946;2022-11-02T14:41:10;10.75;;;4.57;;
19595;SDS011;9945;46.010;8.946;2022-11-02T14:43:48;9.85;;;4.32;;
19595;SDS011;9945;46.010;8.946;2022-11-02T14:46:32;15.55;;;4.22;;
19595;SDS011;9945;46.010;8.946;2022-11-02T14:49:14;15.68;;;4.65;;
19595;SDS011;9945;46.010;8.946;2022-11-02T14:51:52;13.07;;;4.32;;
19595;SDS011;9945;46.010;8.946;2022-11-02T14:54:22;12.80;;;4.13;;
19595;SDS011;9945;46.010;8.946;2022-11-02T14:56:50;14.15;;;4.60;;
19595;SDS011;9945;46.010;8.946;2022-11-02T14:59:21;9.98;;;4.90;;
19595;SDS011;9945;46.010;8.946;2022-11-02T15:01:54;12.65;;;4.78;;
19595;SDS011;9945;46.010;8.946;2022-11-02T15:04:23;15.02;;;4.72;;
19595;SDS011;9945;46.010;8.946;2022-11-02T15:06:54;9.48;;;3.90;;
19595;SDS011;9945;46.010;8.946;2022-11-02T15:12:32;14.45;;;4.22;;
19595;SDS011;9945;46.010;8.946;2022-11-02T15:24:12;13.45;;;4.72;;
19595;SDS011;9945;46.010;8.946;2022-11-02T15:26:44;16.98;;;4.57;;
19595;SDS011;9945;46.010;8.946;2022-11-02T15:29:15;11.50;;;4.82;;
19595;SDS011;9945;46.010;8.946;2022-11-02T15:32:06;15.05;;;4.70;;
19595;SDS011;9945;46.010;8.946;2022-11-02T15:34:39;12.30;;;4.57;;
19595;SDS011;9945;46.010;8.946;2022-11-02T15:37:11;13.40;;;5.10;;
19595;SDS011;9945;46.010;8.946;2022-11-02T15:39:47;12.15;;;5.30;;
19595;SDS011;9945;46.010;8.946;2022-11-02T15:42:17;16.85;;;4.80;;